createdAt,value
2022-08-21T00:01:54.780Z,18.84
2022-08-21T00:04:22.843Z,18.90
2022-08-21T00:06:56.274Z,18.81
2022-08-21T00:09:23.170Z,18.87
2022-08-21T00:11:50.275Z,18.46
2022-08-21T00:14:17.777Z,18.63
2022-08-21T00:16:44.911Z,18.75
2022-08-21T00:19:17.039Z,18.80
2022-08-21T00:21:46.504Z,18.73
2022-08-21T00:24:13.774Z,18.59
2022-08-21T00:26:40.641Z,18.42
2022-08-21T00:29:07.563Z,18.32
2022-08-21T00:31:37.603Z,18.31
2022-08-21T00:34:05.104Z,18.05
2022-08-21T00:36:32.061Z,17.93
2022-08-21T00:38:59.488Z,17.81
2022-08-21T00:41:38.306Z,17.79
2022-08-21T00:44:09.046Z,17.80
2022-08-21T00:46:36.896Z,17.65
2022-08-21T00:49:08.460Z,17.66
2022-08-21T00:51:46.531Z,17.64
2022-08-21T00:54:17.984Z,17.63
2022-08-21T00:56:50.050Z,17.62
2022-08-21T00:59:22.912Z,17.46
2022-08-21T01:01:51.194Z,17.68
2022-08-21T01:04:20.664Z,17.68
2022-08-21T01:06:50.246Z,17.65
2022-08-21T01:09:21.734Z,17.64
2022-08-21T01:11:49.140Z,17.58
2022-08-21T01:14:20.686Z,17.75
2022-08-21T01:16:53.836Z,17.75
2022-08-21T01:19:25.514Z,17.82
2022-08-21T01:21:55.791Z,17.69
2022-08-21T01:24:23.417Z,17.58
2022-08-21T01:26:53.303Z,17.52
2022-08-21T01:29:45.264Z,17.44
2022-08-21T01:32:18.424Z,17.40
2022-08-21T01:34:51.516Z,17.08
2022-08-21T01:37:23.430Z,16.75
2022-08-21T01:39:53.069Z,16.84
2022-08-21T01:42:20.476Z,16.72
2022-08-21T01:44:47.436Z,16.73
2022-08-21T01:47:17.704Z,16.80
2022-08-21T01:49:46.085Z,16.59
2022-08-21T01:52:13.193Z,16.79
2022-08-21T01:54:40.721Z,16.80
2022-08-21T01:57:08.262Z,16.53
2022-08-21T01:59:35.784Z,16.23
2022-08-21T02:02:05.438Z,16.20
2022-08-21T02:04:33.647Z,16.35
2022-08-21T02:07:02.902Z,16.38
2022-08-21T02:09:29.914Z,16.27
2022-08-21T02:12:00.023Z,16.29
2022-08-21T02:14:32.745Z,16.13
2022-08-21T02:17:05.141Z,16.12
2022-08-21T02:19:40.101Z,16.24
2022-08-21T02:22:10.157Z,16.31
2022-08-21T02:24:53.863Z,16.23
2022-08-21T02:27:27.200Z,16.27
2022-08-21T02:30:00.050Z,16.29
2022-08-21T02:32:27.405Z,16.37
2022-08-21T02:34:54.468Z,16.31
2022-08-21T02:37:22.666Z,16.42
2022-08-21T02:39:49.638Z,16.26
2022-08-21T02:42:22.225Z,16.31
2022-08-21T02:44:49.135Z,16.27
2022-08-21T02:47:19.163Z,16.11
2022-08-21T02:49:50.669Z,16.11
2022-08-21T02:52:21.200Z,15.93
2022-08-21T02:54:50.161Z,15.85
2022-08-21T02:57:17.516Z,16.09
2022-08-21T02:59:48.075Z,15.98
2022-08-21T03:02:15.338Z,15.96
2022-08-21T03:04:46.765Z,16.00
2022-08-21T03:07:13.940Z,16.08
2022-08-21T03:09:45.570Z,16.09
2022-08-21T03:12:26.648Z,15.94
2022-08-21T03:14:59.499Z,16.01
2022-08-21T03:17:29.501Z,16.08
2022-08-21T03:19:59.309Z,15.78
2022-08-21T03:22:27.629Z,15.75
2022-08-21T03:24:58.339Z,16.00
2022-08-21T03:27:25.515Z,16.18
2022-08-21T03:29:55.518Z,16.06
2022-08-21T03:32:22.658Z,16.02
2022-08-21T03:34:49.780Z,15.93
2022-08-21T03:37:18.605Z,15.89
2022-08-21T03:39:46.233Z,16.09
2022-08-21T03:42:15.566Z,16.32
2022-08-21T03:44:42.579Z,16.37
2022-08-21T03:47:10.534Z,16.28
2022-08-21T03:49:38.219Z,16.27
2022-08-21T03:52:05.764Z,16.24
2022-08-21T03:54:32.918Z,16.34
2022-08-21T03:57:00.020Z,16.11
2022-08-21T03:59:29.614Z,15.93
2022-08-21T04:02:01.073Z,15.87
2022-08-21T04:04:29.542Z,16.12
2022-08-21T04:06:58.189Z,15.86
2022-08-21T04:09:28.427Z,15.81
2022-08-21T04:11:55.394Z,15.89
2022-08-21T04:14:24.741Z,15.70
2022-08-21T04:16:54.095Z,15.88
2022-08-21T04:19:21.050Z,15.62
2022-08-21T04:21:50.616Z,15.59
2022-08-21T04:24:20.343Z,15.44
2022-08-21T04:26:49.791Z,15.46
2022-08-21T04:29:18.882Z,15.52
2022-08-21T04:31:45.739Z,15.58
2022-08-21T04:34:13.387Z,15.30
2022-08-21T04:36:40.328Z,15.53
2022-08-21T04:39:10.206Z,15.19
2022-08-21T04:41:37.482Z,15.08
2022-08-21T04:44:08.068Z,15.05
2022-08-21T04:46:35.770Z,15.16
2022-08-21T04:49:02.692Z,15.44
2022-08-21T04:51:40.564Z,15.39
2022-08-21T04:54:19.576Z,15.66
2022-08-21T04:56:53.966Z,15.79
2022-08-21T04:59:37.744Z,15.63
2022-08-21T05:02:07.518Z,15.90
2022-08-21T05:04:41.042Z,15.40
2022-08-21T05:07:14.858Z,15.38
2022-08-21T05:09:44.369Z,15.44
2022-08-21T05:12:11.556Z,15.44
2022-08-21T05:14:39.649Z,15.48
2022-08-21T05:17:06.555Z,15.76
2022-08-21T05:19:33.479Z,15.92
2022-08-21T05:22:00.770Z,15.92
2022-08-21T05:24:29.263Z,16.00
2022-08-21T05:26:56.138Z,15.99
2022-08-21T05:29:23.187Z,16.15
2022-08-21T05:31:50.434Z,16.25
2022-08-21T05:34:26.963Z,16.41
2022-08-21T05:36:53.849Z,16.57
2022-08-21T05:39:22.916Z,16.62
2022-08-21T05:41:50.295Z,16.71
2022-08-21T05:44:17.159Z,17.02
2022-08-21T05:46:49.007Z,17.00
2022-08-21T05:49:15.864Z,17.41
2022-08-21T05:51:43.425Z,17.50
2022-08-21T05:54:10.394Z,17.75
2022-08-21T05:56:37.336Z,18.03
2022-08-21T05:59:08.838Z,18.41
2022-08-21T06:01:36.785Z,18.43
2022-08-21T06:04:06.396Z,18.59
2022-08-21T06:06:33.577Z,18.77
2022-08-21T06:09:03.620Z,18.67
2022-08-21T06:11:30.845Z,18.51
2022-08-21T06:13:58.177Z,18.82
2022-08-21T06:16:26.150Z,18.85
2022-08-21T06:18:53.348Z,18.90
2022-08-21T06:21:20.506Z,18.95
2022-08-21T06:23:47.389Z,19.06
2022-08-21T06:26:15.574Z,19.50
2022-08-21T06:28:43.875Z,19.48
2022-08-21T06:31:25.986Z,19.89
2022-08-21T06:33:53.465Z,19.72
2022-08-21T06:36:24.102Z,19.79
2022-08-21T06:38:56.982Z,19.57
2022-08-21T06:41:27.953Z,19.46
2022-08-21T06:43:56.537Z,19.57
2022-08-21T06:46:26.932Z,19.54
2022-08-21T06:48:53.887Z,19.44
2022-08-21T06:51:20.991Z,19.25
2022-08-21T06:53:47.935Z,19.52
2022-08-21T06:56:14.848Z,19.70
2022-08-21T06:58:41.880Z,20.03
2022-08-21T07:01:13.472Z,20.17
2022-08-21T07:03:44.026Z,20.23
2022-08-21T07:06:12.733Z,20.69
2022-08-21T07:08:40.573Z,21.09
2022-08-21T07:11:21.986Z,21.44
2022-08-21T07:13:49.530Z,21.64
2022-08-21T07:16:16.644Z,21.60
2022-08-21T07:18:43.707Z,21.88
2022-08-21T07:21:12.993Z,22.06
2022-08-21T07:23:45.500Z,22.34
2022-08-21T07:26:14.032Z,22.81
2022-08-21T07:28:43.231Z,23.14
2022-08-21T07:31:16.200Z,22.81
2022-08-21T07:33:44.113Z,22.58
2022-08-21T07:36:16.219Z,22.85
2022-08-21T07:38:47.079Z,23.11
2022-08-21T07:41:24.519Z,22.58
2022-08-21T07:43:52.958Z,22.77
2022-08-21T07:46:22.814Z,23.16
2022-08-21T07:48:49.767Z,23.59
2022-08-21T07:51:27.834Z,23.79
2022-08-21T07:54:00.135Z,24.20
2022-08-21T07:56:28.825Z,24.56
2022-08-21T07:58:58.762Z,24.36
2022-08-21T08:01:28.459Z,24.29
2022-08-21T08:03:56.049Z,23.90
2022-08-21T08:06:24.141Z,24.37
2022-08-21T08:08:54.109Z,24.88
2022-08-21T08:11:25.876Z,24.59
2022-08-21T08:13:53.358Z,24.39
2022-08-21T08:16:20.366Z,24.80
2022-08-21T08:18:49.900Z,24.98
2022-08-21T08:21:17.263Z,24.57
2022-08-21T08:23:46.129Z,24.59
2022-08-21T08:26:16.567Z,24.95
2022-08-21T08:28:48.631Z,24.79
2022-08-21T08:31:15.956Z,25.40
2022-08-21T08:33:46.757Z,25.48
2022-08-21T08:36:21.033Z,25.34
2022-08-21T08:38:48.411Z,25.98
2022-08-21T08:41:22.885Z,25.78
2022-08-21T08:44:04.984Z,26.35
2022-08-21T08:46:40.522Z,27.28
2022-08-21T08:49:25.185Z,28.23
2022-08-21T08:52:25.579Z,28.27
2022-08-21T08:55:15.980Z,27.89
2022-08-21T08:57:49.964Z,27.86
2022-08-21T09:00:21.610Z,26.57
2022-08-21T09:02:56.871Z,26.92
2022-08-21T09:05:30.426Z,26.80
2022-08-21T09:08:21.559Z,26.58
2022-08-21T09:11:11.775Z,27.12
2022-08-21T09:14:12.456Z,27.60
2022-08-21T09:17:17.441Z,28.21
2022-08-21T09:20:11.006Z,27.82
2022-08-21T09:22:52.786Z,28.50
2022-08-21T09:25:29.732Z,29.32
2022-08-21T09:27:59.569Z,29.83
2022-08-21T09:30:33.811Z,29.10
2022-08-21T09:33:03.255Z,28.24
2022-08-21T09:35:30.120Z,28.79
2022-08-21T09:38:10.216Z,29.27
2022-08-21T09:40:41.335Z,29.71
2022-08-21T09:43:24.038Z,30.07
2022-08-21T09:46:21.939Z,29.29
2022-08-21T09:48:54.812Z,28.07
2022-08-21T09:51:30.362Z,29.25
2022-08-21T09:54:06.320Z,29.17
2022-08-21T09:56:58.357Z,28.46
2022-08-21T09:59:37.082Z,28.69
2022-08-21T10:02:36.626Z,28.56
2022-08-21T10:05:25.954Z,29.16
2022-08-21T10:07:55.938Z,28.82
2022-08-21T10:10:33.579Z,29.38
2022-08-21T10:13:27.008Z,29.04
2022-08-21T10:16:29.688Z,28.95
2022-08-21T10:19:25.137Z,29.95
2022-08-21T10:22:15.513Z,30.68
2022-08-21T10:25:07.228Z,31.36
2022-08-21T10:27:55.767Z,31.99
2022-08-21T10:30:58.109Z,31.83
2022-08-21T10:33:57.867Z,31.13
2022-08-21T10:36:47.952Z,30.77
2022-08-21T10:39:26.582Z,30.57
2022-08-21T10:42:17.964Z,30.88
2022-08-21T10:45:27.655Z,31.40
2022-08-21T10:48:09.870Z,31.44
2022-08-21T10:50:54.542Z,30.73
2022-08-21T10:53:48.541Z,30.54
2022-08-21T10:56:40.287Z,31.05
2022-08-21T10:59:26.591Z,30.89
2022-08-21T11:02:02.259Z,31.11
2022-08-21T11:04:51.221Z,31.26
2022-08-21T11:07:32.265Z,31.97
2022-08-21T11:10:17.371Z,32.09
2022-08-21T11:13:03.878Z,32.05
2022-08-21T11:16:02.031Z,31.45
2022-08-21T11:18:39.133Z,31.05
2022-08-21T11:21:40.181Z,31.17
2022-08-21T11:25:04.173Z,30.99
2022-08-21T11:27:46.672Z,31.35
2022-08-21T11:30:19.891Z,31.97
2022-08-21T11:33:24.838Z,32.68
2022-08-21T11:36:27.666Z,33.42
2022-08-21T11:39:26.985Z,33.07
2022-08-21T11:42:11.285Z,32.33
2022-08-21T11:44:44.570Z,32.26
2022-08-21T11:47:54.343Z,32.23
2022-08-21T11:50:36.490Z,31.71
2022-08-21T11:53:24.101Z,32.03
2022-08-21T11:56:04.249Z,31.61
2022-08-21T11:58:45.308Z,31.60
2022-08-21T12:01:43.529Z,32.28
2022-08-21T12:04:33.543Z,32.92
2022-08-21T12:07:37.285Z,33.06
2022-08-21T12:10:15.412Z,33.56
2022-08-21T12:12:45.279Z,33.96
2022-08-21T12:15:21.614Z,34.19
2022-08-21T12:18:04.043Z,33.72
2022-08-21T12:20:30.872Z,33.52
2022-08-21T12:23:30.494Z,33.68
2022-08-21T12:26:05.125Z,33.58
2022-08-21T12:28:32.566Z,33.43
2022-08-21T12:31:00.174Z,33.35
2022-08-21T12:33:42.402Z,33.59
2022-08-21T12:36:22.256Z,33.65
2022-08-21T12:39:12.708Z,34.00
2022-08-21T12:41:50.991Z,33.98
2022-08-21T12:44:34.082Z,34.18
2022-08-21T12:47:23.926Z,34.12
2022-08-21T12:50:12.479Z,33.40
2022-08-21T12:52:52.667Z,33.45
2022-08-21T12:55:32.024Z,33.84
2022-08-21T12:58:02.260Z,33.33
2022-08-21T13:00:31.204Z,33.65
2022-08-21T13:02:58.907Z,33.74
2022-08-21T13:05:35.216Z,33.96
2022-08-21T13:08:07.226Z,33.97
2022-08-21T13:10:36.175Z,34.01
2022-08-21T13:13:12.541Z,34.11
2022-08-21T13:15:47.459Z,34.48
2022-08-21T13:18:34.063Z,34.64
2022-08-21T13:21:08.377Z,34.32
2022-08-21T13:23:35.578Z,34.21
2022-08-21T13:26:04.328Z,34.07
2022-08-21T13:28:38.769Z,33.89
2022-08-21T13:31:14.400Z,33.96
2022-08-21T13:33:44.995Z,33.50
2022-08-21T13:36:31.164Z,33.63
2022-08-21T13:39:01.455Z,33.49
2022-08-21T13:41:37.975Z,33.44
2022-08-21T13:44:20.610Z,33.31
2022-08-21T13:46:50.313Z,33.34
2022-08-21T13:49:21.866Z,32.81
2022-08-21T13:51:49.552Z,32.75
2022-08-21T13:54:40.687Z,32.97
2022-08-21T13:57:29.815Z,32.60
2022-08-21T14:00:26.373Z,32.59
2022-08-21T14:02:55.566Z,32.84
2022-08-21T14:05:37.666Z,33.04
2022-08-21T14:08:35.260Z,32.97
2022-08-21T14:11:06.785Z,33.23
2022-08-21T14:13:39.728Z,33.06
2022-08-21T14:16:22.637Z,32.60
2022-08-21T14:18:52.924Z,32.40
2022-08-21T14:21:46.961Z,32.51
2022-08-21T14:24:28.229Z,32.61
2022-08-21T14:26:59.487Z,32.51
2022-08-21T14:29:33.058Z,32.04
2022-08-21T14:32:24.556Z,32.18
2022-08-21T14:34:58.033Z,32.14
2022-08-21T14:37:26.635Z,32.20
2022-08-21T14:39:53.907Z,31.87
2022-08-21T14:42:21.513Z,31.63
2022-08-21T14:44:49.147Z,32.03
2022-08-21T14:47:17.421Z,32.17
2022-08-21T14:49:46.882Z,32.13
2022-08-21T14:52:16.137Z,32.34
2022-08-21T14:54:45.695Z,32.27
2022-08-21T14:57:16.382Z,32.31
2022-08-21T14:59:43.963Z,32.38
2022-08-21T15:02:11.459Z,31.99
2022-08-21T15:04:38.527Z,31.94
2022-08-21T15:07:05.806Z,31.83
2022-08-21T15:09:32.690Z,31.76
2022-08-21T15:12:03.605Z,32.13
2022-08-21T15:14:37.479Z,32.29
2022-08-21T15:17:07.450Z,32.27
2022-08-21T15:19:40.533Z,32.29
2022-08-21T15:22:15.227Z,32.16
2022-08-21T15:24:47.768Z,31.95
2022-08-21T15:27:17.250Z,31.38
2022-08-21T15:29:44.137Z,31.13
2022-08-21T15:32:29.253Z,31.10
2022-08-21T15:34:57.737Z,30.92
2022-08-21T15:37:26.906Z,31.02
2022-08-21T15:39:57.175Z,30.98
2022-08-21T15:42:27.650Z,31.05
2022-08-21T15:45:01.174Z,31.29
2022-08-21T15:47:35.092Z,31.33
2022-08-21T15:50:05.989Z,31.11
2022-08-21T15:52:32.921Z,31.13
2022-08-21T15:55:03.532Z,30.73
2022-08-21T15:57:35.142Z,30.49
2022-08-21T16:00:16.879Z,30.72
2022-08-21T16:02:52.255Z,30.70
2022-08-21T16:05:24.432Z,30.90
2022-08-21T16:07:54.385Z,30.89
2022-08-21T16:10:24.023Z,30.79
2022-08-21T16:13:04.164Z,31.02
2022-08-21T16:15:31.562Z,31.00
2022-08-21T16:17:59.269Z,30.82
2022-08-21T16:20:29.852Z,30.54
2022-08-21T16:22:58.895Z,30.43
2022-08-21T16:25:26.385Z,30.43
2022-08-21T16:27:59.787Z,30.19
2022-08-21T16:30:29.935Z,30.13
2022-08-21T16:32:57.399Z,30.15
2022-08-21T16:35:25.184Z,30.15
2022-08-21T16:37:55.051Z,30.20
2022-08-21T16:40:27.060Z,30.27
2022-08-21T16:42:54.186Z,30.26
2022-08-21T16:45:21.865Z,30.11
2022-08-21T16:47:49.001Z,30.15
2022-08-21T16:50:22.333Z,30.19
2022-08-21T16:52:49.898Z,30.07
2022-08-21T16:55:17.389Z,29.76
2022-08-21T16:57:47.292Z,29.82
2022-08-21T17:00:16.934Z,29.62
2022-08-21T17:02:54.099Z,29.47
2022-08-21T17:05:21.236Z,29.27
2022-08-21T17:07:48.416Z,29.43
2022-08-21T17:10:19.916Z,29.48
2022-08-21T17:12:56.151Z,29.32
2022-08-21T17:15:30.213Z,29.30
2022-08-21T17:17:57.196Z,29.26
2022-08-21T17:20:26.018Z,29.17
2022-08-21T17:22:53.397Z,29.33
2022-08-21T17:25:23.377Z,29.21
2022-08-21T17:27:51.053Z,29.13
2022-08-21T17:30:24.292Z,28.92
2022-08-21T17:32:55.121Z,28.81
2022-08-21T17:35:22.254Z,28.91
2022-08-21T17:37:49.300Z,28.89
2022-08-21T17:40:17.965Z,29.02
2022-08-21T17:42:47.568Z,28.85
2022-08-21T17:45:21.053Z,28.68
2022-08-21T17:47:48.190Z,28.57
2022-08-21T17:50:22.736Z,28.53
2022-08-21T17:52:52.855Z,28.44
2022-08-21T17:55:21.220Z,28.46
2022-08-21T17:57:51.645Z,28.29
2022-08-21T18:00:20.824Z,28.19
2022-08-21T18:03:00.493Z,28.23
2022-08-21T18:05:28.334Z,28.10
2022-08-21T18:07:58.230Z,28.09
2022-08-21T18:10:25.914Z,27.86
2022-08-21T18:12:53.646Z,27.84
2022-08-21T18:15:23.587Z,27.77
2022-08-21T18:17:52.583Z,27.75
2022-08-21T18:20:25.822Z,27.59
2022-08-21T18:22:53.002Z,27.44
2022-08-21T18:25:20.951Z,27.30
2022-08-21T18:27:53.421Z,27.39
2022-08-21T18:30:23.136Z,27.37
2022-08-21T18:32:52.964Z,27.12
2022-08-21T18:35:20.578Z,27.12
2022-08-21T18:37:47.719Z,27.03
2022-08-21T18:40:15.776Z,27.01
2022-08-21T18:42:58.923Z,26.95
2022-08-21T18:45:27.519Z,26.86
2022-08-21T18:48:03.965Z,26.67
2022-08-21T18:50:31.809Z,26.64
2022-08-21T18:52:58.941Z,26.77
2022-08-21T18:55:32.808Z,26.62
2022-08-21T18:58:00.487Z,26.59
2022-08-21T19:00:35.834Z,26.35
2022-08-21T19:03:06.173Z,26.29
2022-08-21T19:05:39.969Z,26.38
2022-08-21T19:08:15.475Z,26.22
2022-08-21T19:10:45.724Z,26.07
2022-08-21T19:13:17.296Z,25.92
2022-08-21T19:15:49.869Z,25.83
2022-08-21T19:18:22.537Z,25.85
2022-08-21T19:20:57.657Z,25.75
2022-08-21T19:23:29.179Z,25.55
2022-08-21T19:26:05.757Z,25.44
2022-08-21T19:28:47.545Z,25.27
2022-08-21T19:31:24.203Z,25.29
2022-08-21T19:34:18.416Z,25.06
2022-08-21T19:36:46.914Z,25.01
2022-08-21T19:39:19.004Z,24.93
2022-08-21T19:41:53.000Z,24.66
2022-08-21T19:44:24.811Z,24.82
2022-08-21T19:46:55.160Z,24.72
2022-08-21T19:49:35.537Z,24.76
2022-08-21T19:52:13.028Z,24.80
2022-08-21T19:54:41.062Z,24.69
2022-08-21T19:57:11.312Z,24.83
2022-08-21T19:59:40.555Z,24.67
2022-08-21T20:02:10.457Z,24.72
2022-08-21T20:04:38.131Z,24.76
2022-08-21T20:07:08.822Z,24.77
2022-08-21T20:09:37.743Z,24.70
2022-08-21T20:12:11.874Z,24.69
2022-08-21T20:14:50.248Z,24.73
2022-08-21T20:17:19.549Z,24.62
2022-08-21T20:19:54.954Z,24.48
2022-08-21T20:22:22.763Z,24.49
2022-08-21T20:24:51.973Z,24.43
2022-08-21T20:27:27.667Z,24.45
2022-08-21T20:29:57.647Z,24.50
2022-08-21T20:32:29.294Z,24.40
2022-08-21T20:34:59.594Z,24.24
2022-08-21T20:37:36.574Z,24.22
2022-08-21T20:40:11.005Z,24.09
2022-08-21T20:42:47.567Z,24.05
2022-08-21T20:45:34.797Z,24.05
2022-08-21T20:48:49.540Z,23.99
2022-08-21T20:51:31.895Z,23.97
2022-08-21T20:54:23.987Z,23.98
2022-08-21T20:57:29.492Z,23.86
2022-08-21T21:00:14.615Z,23.81
2022-08-21T21:02:52.918Z,23.59
2022-08-21T21:05:53.377Z,23.35
2022-08-21T21:08:27.520Z,23.26
2022-08-21T21:11:36.127Z,23.28
2022-08-21T21:14:15.674Z,23.31
2022-08-21T21:16:55.622Z,23.28
2022-08-21T21:19:39.863Z,23.20
2022-08-21T21:22:32.316Z,23.16
2022-08-21T21:25:40.646Z,23.17
2022-08-21T21:28:26.362Z,23.17
2022-08-21T21:33:47.486Z,22.95
2022-08-21T21:40:03.184Z,23.07
2022-08-21T21:42:40.239Z,23.08
2022-08-21T21:45:36.858Z,22.97
2022-08-21T21:48:27.359Z,22.96
2022-08-21T21:51:01.246Z,22.99
2022-08-21T21:53:55.712Z,22.96
2022-08-21T21:56:40.417Z,22.85
2022-08-21T21:59:47.777Z,22.83
2022-08-21T22:02:20.877Z,22.80
2022-08-21T22:05:18.497Z,22.90
2022-08-21T22:08:15.385Z,22.98
2022-08-21T22:11:08.970Z,22.70
2022-08-21T22:14:13.648Z,22.48
2022-08-21T22:16:45.207Z,22.49
2022-08-21T22:19:23.371Z,22.22
2022-08-21T22:22:17.348Z,22.40
2022-08-21T22:24:52.597Z,22.65
2022-08-21T22:27:27.807Z,22.71
2022-08-21T22:29:59.322Z,22.55
2022-08-21T22:32:29.992Z,22.51
2022-08-21T22:35:19.650Z,22.49
2022-08-21T22:37:56.548Z,22.28
2022-08-21T22:40:35.751Z,22.21
2022-08-21T22:43:15.474Z,22.05
2022-08-21T22:46:06.035Z,22.11
2022-08-21T22:48:55.674Z,22.08
2022-08-21T22:51:32.983Z,22.10
2022-08-21T22:54:00.793Z,22.08
2022-08-21T22:56:41.485Z,22.05
2022-08-21T22:59:27.244Z,22.11
2022-08-21T23:02:38.940Z,22.00
2022-08-21T23:05:18.769Z,21.93
2022-08-21T23:07:49.961Z,22.11
2022-08-21T23:10:42.038Z,21.96
2022-08-21T23:13:19.120Z,21.89
2022-08-21T23:16:03.909Z,21.93
2022-08-21T23:18:55.359Z,22.00
2022-08-21T23:21:37.687Z,21.99
2022-08-21T23:27:52.828Z,21.55
2022-08-21T23:30:37.764Z,21.43
2022-08-21T23:33:27.058Z,21.29
2022-08-21T23:36:41.121Z,21.31
2022-08-21T23:39:42.367Z,21.47
2022-08-21T23:42:22.639Z,21.52
2022-08-21T23:45:24.334Z,21.62
2022-08-21T23:48:32.746Z,21.71
2022-08-21T23:51:12.439Z,21.55
2022-08-21T23:53:59.491Z,21.37
2022-08-21T23:56:58.059Z,21.51
2022-08-21T23:59:36.268Z,21.49
